sensor_id;sensor_type;location;lat;lon;timestamp;P1;durP1;ratioP1;P2;durP2;ratioP2
16856;SDS011;8544;51.312;12.276;2022-08-21T00:02:20;63.80;;;60.03;;
16856;SDS011;8544;51.312;12.276;2022-08-21T00:04:52;54.47;;;51.33;;
16856;SDS011;8544;51.312;12.276;2022-08-21T00:07:36;43.80;;;41.40;;
16856;SDS011;8544;51.312;12.276;2022-08-21T00:10:04;47.33;;;44.73;;
16856;SDS011;8544;51.312;12.276;2022-08-21T00:12:33;63.33;;;59.07;;
16856;SDS011;8544;51.312;12.276;2022-08-21T00:15:02;59.57;;;56.17;;
16856;SDS011;8544;51.312;12.276;2022-08-21T00:17:35;52.00;;;48.70;;
16856;SDS011;8544;51.312;12.276;2022-08-21T00:20:03;50.87;;;47.73;;
16856;SDS011;8544;51.312;12.276;2022-08-21T00:22:33;49.23;;;46.23;;
16856;SDS011;8544;51.312;12.276;2022-08-21T00:25:02;51.37;;;48.43;;
16856;SDS011;8544;51.312;12.276;2022-08-21T00:27:51;52.90;;;49.83;;
16856;SDS011;8544;51.312;12.276;2022-08-21T00:30:28;64.63;;;60.57;;
16856;SDS011;8544;51.312;12.276;2022-08-21T00:32:58;55.10;;;51.97;;
16856;SDS011;8544;51.312;12.276;2022-08-21T00:35:28;49.13;;;46.47;;
16856;SDS011;8544;51.312;12.276;2022-08-21T00:37:58;49.67;;;46.67;;
16856;SDS011;8544;51.312;12.276;2022-08-21T00:40:28;50.30;;;47.47;;
16856;SDS011;8544;51.312;12.276;2022-08-21T00:43:00;40.90;;;38.57;;
16856;SDS011;8544;51.312;12.276;2022-08-21T00:45:30;47.13;;;44.50;;
16856;SDS011;8544;51.312;12.276;2022-08-21T00:48:01;37.33;;;35.30;;
16856;SDS011;8544;51.312;12.276;2022-08-21T00:50:31;39.87;;;37.50;;
16856;SDS011;8544;51.312;12.276;2022-08-21T00:53:02;38.63;;;36.53;;
16856;SDS011;8544;51.312;12.276;2022-08-21T00:55:33;38.33;;;36.03;;
16856;SDS011;8544;51.312;12.276;2022-08-21T00:58:05;41.17;;;38.90;;
16856;SDS011;8544;51.312;12.276;2022-08-21T01:00:36;39.03;;;36.80;;
16856;SDS011;8544;51.312;12.276;2022-08-21T01:03:09;45.80;;;43.00;;
16856;SDS011;8544;51.312;12.276;2022-08-21T01:05:40;36.80;;;34.60;;
16856;SDS011;8544;51.312;12.276;2022-08-21T01:08:09;48.77;;;46.00;;
16856;SDS011;8544;51.312;12.276;2022-08-21T01:10:38;40.33;;;38.10;;
16856;SDS011;8544;51.312;12.276;2022-08-21T01:13:10;44.13;;;41.30;;
16856;SDS011;8544;51.312;12.276;2022-08-21T01:15:42;50.73;;;47.97;;
16856;SDS011;8544;51.312;12.276;2022-08-21T01:18:16;53.93;;;50.83;;
16856;SDS011;8544;51.312;12.276;2022-08-21T01:23:55;54.50;;;51.03;;
16856;SDS011;8544;51.312;12.276;2022-08-21T01:26:45;47.30;;;44.63;;
16856;SDS011;8544;51.312;12.276;2022-08-21T01:29:15;57.33;;;53.97;;
16856;SDS011;8544;51.312;12.276;2022-08-21T01:31:51;40.13;;;37.73;;
16856;SDS011;8544;51.312;12.276;2022-08-21T01:34:20;47.33;;;44.30;;
16856;SDS011;8544;51.312;12.276;2022-08-21T01:36:50;47.83;;;44.73;;
16856;SDS011;8544;51.312;12.276;2022-08-21T01:39:25;45.90;;;43.17;;
16856;SDS011;8544;51.312;12.276;2022-08-21T01:41:53;37.60;;;35.53;;
16856;SDS011;8544;51.312;12.276;2022-08-21T01:44:21;58.03;;;53.73;;
16856;SDS011;8544;51.312;12.276;2022-08-21T01:46:50;49.83;;;46.97;;
16856;SDS011;8544;51.312;12.276;2022-08-21T01:49:21;44.43;;;42.00;;
16856;SDS011;8544;51.312;12.276;2022-08-21T01:51:50;48.37;;;45.47;;
16856;SDS011;8544;51.312;12.276;2022-08-21T01:54:31;49.20;;;46.40;;
16856;SDS011;8544;51.312;12.276;2022-08-21T01:57:00;39.93;;;37.80;;
16856;SDS011;8544;51.312;12.276;2022-08-21T01:59:31;53.10;;;50.03;;
16856;SDS011;8544;51.312;12.276;2022-08-21T02:02:00;44.67;;;42.20;;
16856;SDS011;8544;51.312;12.276;2022-08-21T02:04:38;43.40;;;41.00;;
16856;SDS011;8544;51.312;12.276;2022-08-21T02:07:10;40.83;;;38.63;;
16856;SDS011;8544;51.312;12.276;2022-08-21T02:09:39;48.30;;;45.53;;
16856;SDS011;8544;51.312;12.276;2022-08-21T02:12:09;48.87;;;46.13;;
16856;SDS011;8544;51.312;12.276;2022-08-21T02:14:38;60.20;;;56.87;;
16856;SDS011;8544;51.312;12.276;2022-08-21T02:17:06;43.07;;;40.67;;
16856;SDS011;8544;51.312;12.276;2022-08-21T02:19:35;45.20;;;42.50;;
16856;SDS011;8544;51.312;12.276;2022-08-21T02:22:06;42.27;;;39.97;;
16856;SDS011;8544;51.312;12.276;2022-08-21T02:24:35;41.43;;;39.20;;
16856;SDS011;8544;51.312;12.276;2022-08-21T02:27:20;62.77;;;59.17;;
16856;SDS011;8544;51.312;12.276;2022-08-21T02:29:52;53.07;;;50.17;;
16856;SDS011;8544;51.312;12.276;2022-08-21T02:32:21;42.13;;;39.83;;
16856;SDS011;8544;51.312;12.276;2022-08-21T02:34:49;44.37;;;41.73;;
16856;SDS011;8544;51.312;12.276;2022-08-21T02:37:18;41.10;;;38.90;;
16856;SDS011;8544;51.312;12.276;2022-08-21T02:39:45;44.20;;;41.83;;
16856;SDS011;8544;51.312;12.276;2022-08-21T02:42:14;43.67;;;41.17;;
16856;SDS011;8544;51.312;12.276;2022-08-21T02:44:43;39.77;;;37.63;;
16856;SDS011;8544;51.312;12.276;2022-08-21T02:47:13;42.10;;;39.87;;
16856;SDS011;8544;51.312;12.276;2022-08-21T02:49:41;44.90;;;42.50;;
16856;SDS011;8544;51.312;12.276;2022-08-21T02:52:09;42.13;;;39.83;;
16856;SDS011;8544;51.312;12.276;2022-08-21T02:54:38;40.93;;;38.73;;
16856;SDS011;8544;51.312;12.276;2022-08-21T02:57:06;41.67;;;39.43;;
16856;SDS011;8544;51.312;12.276;2022-08-21T02:59:36;44.20;;;41.70;;
16856;SDS011;8544;51.312;12.276;2022-08-21T03:02:08;42.97;;;40.57;;
16856;SDS011;8544;51.312;12.276;2022-08-21T03:04:38;43.00;;;40.70;;
16856;SDS011;8544;51.312;12.276;2022-08-21T03:07:14;41.10;;;38.80;;
16856;SDS011;8544;51.312;12.276;2022-08-21T03:09:43;53.00;;;50.13;;
16856;SDS011;8544;51.312;12.276;2022-08-21T03:12:21;39.00;;;36.90;;
16856;SDS011;8544;51.312;12.276;2022-08-21T03:14:51;41.67;;;39.47;;
16856;SDS011;8544;51.312;12.276;2022-08-21T03:17:21;42.97;;;40.67;;
16856;SDS011;8544;51.312;12.276;2022-08-21T03:19:55;38.93;;;36.73;;
16856;SDS011;8544;51.312;12.276;2022-08-21T03:22:23;39.20;;;37.13;;
16856;SDS011;8544;51.312;12.276;2022-08-21T03:24:55;42.87;;;40.57;;
16856;SDS011;8544;51.312;12.276;2022-08-21T03:27:25;43.73;;;41.37;;
16856;SDS011;8544;51.312;12.276;2022-08-21T03:29:55;43.73;;;41.13;;
16856;SDS011;8544;51.312;12.276;2022-08-21T03:32:26;43.93;;;41.63;;
16856;SDS011;8544;51.312;12.276;2022-08-21T03:34:55;43.27;;;40.97;;
16856;SDS011;8544;51.312;12.276;2022-08-21T03:37:25;44.73;;;42.33;;
16856;SDS011;8544;51.312;12.276;2022-08-21T03:39:55;46.23;;;43.73;;
16856;SDS011;8544;51.312;12.276;2022-08-21T03:42:24;49.10;;;46.40;;
16856;SDS011;8544;51.312;12.276;2022-08-21T03:44:53;46.43;;;43.93;;
16856;SDS011;8544;51.312;12.276;2022-08-21T03:47:21;46.20;;;43.63;;
16856;SDS011;8544;51.312;12.276;2022-08-21T03:49:51;41.00;;;38.83;;
16856;SDS011;8544;51.312;12.276;2022-08-21T03:52:21;40.30;;;38.17;;
16856;SDS011;8544;51.312;12.276;2022-08-21T03:54:51;29.93;;;28.40;;
16856;SDS011;8544;51.312;12.276;2022-08-21T03:57:20;32.63;;;30.97;;
16856;SDS011;8544;51.312;12.276;2022-08-21T03:59:49;32.20;;;30.53;;
16856;SDS011;8544;51.312;12.276;2022-08-21T04:02:19;34.63;;;32.87;;
16856;SDS011;8544;51.312;12.276;2022-08-21T04:04:50;37.60;;;35.60;;
16856;SDS011;8544;51.312;12.276;2022-08-21T04:07:19;42.67;;;34.10;;
16856;SDS011;8544;51.312;12.276;2022-08-21T04:09:47;34.20;;;32.43;;
16856;SDS011;8544;51.312;12.276;2022-08-21T04:12:17;35.40;;;33.57;;
16856;SDS011;8544;51.312;12.276;2022-08-21T04:15:00;34.50;;;32.70;;
16856;SDS011;8544;51.312;12.276;2022-08-21T04:17:31;35.27;;;33.40;;
16856;SDS011;8544;51.312;12.276;2022-08-21T04:20:02;36.23;;;34.30;;
16856;SDS011;8544;51.312;12.276;2022-08-21T04:22:32;35.60;;;33.77;;
16856;SDS011;8544;51.312;12.276;2022-08-21T04:25:00;35.23;;;33.33;;
16856;SDS011;8544;51.312;12.276;2022-08-21T04:27:29;32.73;;;31.07;;
16856;SDS011;8544;51.312;12.276;2022-08-21T04:29:58;34.63;;;32.80;;
16856;SDS011;8544;51.312;12.276;2022-08-21T04:32:26;33.07;;;31.40;;
16856;SDS011;8544;51.312;12.276;2022-08-21T04:34:57;33.17;;;31.40;;
16856;SDS011;8544;51.312;12.276;2022-08-21T04:37:28;31.03;;;29.43;;
16856;SDS011;8544;51.312;12.276;2022-08-21T04:39:56;26.47;;;25.13;;
16856;SDS011;8544;51.312;12.276;2022-08-21T04:42:25;28.93;;;27.43;;
16856;SDS011;8544;51.312;12.276;2022-08-21T04:44:54;27.63;;;26.27;;
16856;SDS011;8544;51.312;12.276;2022-08-21T04:47:24;30.20;;;28.53;;
16856;SDS011;8544;51.312;12.276;2022-08-21T04:50:12;27.90;;;26.33;;
16856;SDS011;8544;51.312;12.276;2022-08-21T04:52:42;24.10;;;22.90;;
16856;SDS011;8544;51.312;12.276;2022-08-21T04:55:11;22.20;;;21.13;;
16856;SDS011;8544;51.312;12.276;2022-08-21T04:57:43;22.67;;;21.57;;
16856;SDS011;8544;51.312;12.276;2022-08-21T05:00:14;22.73;;;21.60;;
16856;SDS011;8544;51.312;12.276;2022-08-21T05:02:45;20.50;;;19.53;;
16856;SDS011;8544;51.312;12.276;2022-08-21T05:05:23;23.87;;;22.60;;
16856;SDS011;8544;51.312;12.276;2022-08-21T05:07:54;24.77;;;23.57;;
16856;SDS011;8544;51.312;12.276;2022-08-21T05:10:23;32.47;;;30.77;;
16856;SDS011;8544;51.312;12.276;2022-08-21T05:12:51;37.57;;;35.57;;
16856;SDS011;8544;51.312;12.276;2022-08-21T05:15:20;37.57;;;35.60;;
16856;SDS011;8544;51.312;12.276;2022-08-21T05:17:48;32.33;;;30.63;;
16856;SDS011;8544;51.312;12.276;2022-08-21T05:20:25;39.53;;;37.40;;
16856;SDS011;8544;51.312;12.276;2022-08-21T05:23:07;33.27;;;31.57;;
16856;SDS011;8544;51.312;12.276;2022-08-21T05:25:41;33.87;;;32.10;;
16856;SDS011;8544;51.312;12.276;2022-08-21T05:28:14;33.33;;;31.60;;
16856;SDS011;8544;51.312;12.276;2022-08-21T05:30:42;30.37;;;28.80;;
16856;SDS011;8544;51.312;12.276;2022-08-21T05:33:10;23.10;;;22.00;;
16856;SDS011;8544;51.312;12.276;2022-08-21T05:35:44;28.17;;;26.73;;
16856;SDS011;8544;51.312;12.276;2022-08-21T05:38:13;23.67;;;22.50;;
16856;SDS011;8544;51.312;12.276;2022-08-21T05:40:46;21.57;;;20.47;;
16856;SDS011;8544;51.312;12.276;2022-08-21T05:43:14;22.13;;;21.00;;
16856;SDS011;8544;51.312;12.276;2022-08-21T05:45:42;21.67;;;20.67;;
16856;SDS011;8544;51.312;12.276;2022-08-21T05:48:11;20.80;;;19.80;;
16856;SDS011;8544;51.312;12.276;2022-08-21T05:50:45;22.43;;;21.23;;
16856;SDS011;8544;51.312;12.276;2022-08-21T05:53:16;23.80;;;22.60;;
16856;SDS011;8544;51.312;12.276;2022-08-21T05:55:46;23.40;;;22.10;;
16856;SDS011;8544;51.312;12.276;2022-08-21T05:58:16;22.50;;;21.40;;
16856;SDS011;8544;51.312;12.276;2022-08-21T06:00:45;23.63;;;22.50;;
16856;SDS011;8544;51.312;12.276;2022-08-21T06:03:16;24.37;;;23.17;;
16856;SDS011;8544;51.312;12.276;2022-08-21T06:05:45;21.43;;;20.43;;
16856;SDS011;8544;51.312;12.276;2022-08-21T06:08:13;22.27;;;21.17;;
16856;SDS011;8544;51.312;12.276;2022-08-21T06:10:47;22.77;;;21.63;;
16856;SDS011;8544;51.312;12.276;2022-08-21T06:13:19;28.53;;;27.07;;
16856;SDS011;8544;51.312;12.276;2022-08-21T06:15:48;31.53;;;29.93;;
16856;SDS011;8544;51.312;12.276;2022-08-21T06:18:17;35.40;;;33.43;;
16856;SDS011;8544;51.312;12.276;2022-08-21T06:20:45;43.27;;;40.97;;
16856;SDS011;8544;51.312;12.276;2022-08-21T06:23:16;43.43;;;41.03;;
16856;SDS011;8544;51.312;12.276;2022-08-21T06:25:44;44.50;;;42.10;;
16856;SDS011;8544;51.312;12.276;2022-08-21T06:28:12;55.63;;;52.60;;
16856;SDS011;8544;51.312;12.276;2022-08-21T06:30:43;40.50;;;38.37;;
16856;SDS011;8544;51.312;12.276;2022-08-21T06:33:15;43.10;;;40.23;;
16856;SDS011;8544;51.312;12.276;2022-08-21T06:35:43;42.83;;;40.57;;
16856;SDS011;8544;51.312;12.276;2022-08-21T06:38:11;38.40;;;36.37;;
16856;SDS011;8544;51.312;12.276;2022-08-21T06:40:40;36.17;;;34.23;;
16856;SDS011;8544;51.312;12.276;2022-08-21T06:43:13;35.10;;;33.30;;
16856;SDS011;8544;51.312;12.276;2022-08-21T06:45:43;36.33;;;34.40;;
16856;SDS011;8544;51.312;12.276;2022-08-21T06:48:11;37.47;;;35.50;;
16856;SDS011;8544;51.312;12.276;2022-08-21T06:50:44;38.17;;;35.97;;
16856;SDS011;8544;51.312;12.276;2022-08-21T06:53:13;37.90;;;35.87;;
16856;SDS011;8544;51.312;12.276;2022-08-21T06:55:45;40.63;;;38.50;;
16856;SDS011;8544;51.312;12.276;2022-08-21T06:58:13;43.00;;;40.70;;
16856;SDS011;8544;51.312;12.276;2022-08-21T07:00:43;47.57;;;44.97;;
16856;SDS011;8544;51.312;12.276;2022-08-21T07:03:18;47.33;;;44.73;;
16856;SDS011;8544;51.312;12.276;2022-08-21T07:05:48;34.63;;;32.70;;
16856;SDS011;8544;51.312;12.276;2022-08-21T07:08:16;33.03;;;31.33;;
16856;SDS011;8544;51.312;12.276;2022-08-21T07:10:45;37.13;;;35.13;;
16856;SDS011;8544;51.312;12.276;2022-08-21T07:13:13;28.83;;;27.37;;
16856;SDS011;8544;51.312;12.276;2022-08-21T07:15:41;33.10;;;31.40;;
16856;SDS011;8544;51.312;12.276;2022-08-21T07:18:09;36.20;;;34.30;;
16856;SDS011;8544;51.312;12.276;2022-08-21T07:20:38;40.93;;;38.50;;
16856;SDS011;8544;51.312;12.276;2022-08-21T07:23:18;36.20;;;34.30;;
16856;SDS011;8544;51.312;12.276;2022-08-21T07:25:51;34.80;;;33.00;;
16856;SDS011;8544;51.312;12.276;2022-08-21T07:28:19;38.10;;;36.10;;
16856;SDS011;8544;51.312;12.276;2022-08-21T07:30:50;43.27;;;40.97;;
16856;SDS011;8544;51.312;12.276;2022-08-21T07:33:19;41.93;;;39.73;;
16856;SDS011;8544;51.312;12.276;2022-08-21T07:35:47;53.90;;;50.97;;
16856;SDS011;8544;51.312;12.276;2022-08-21T07:38:15;53.90;;;51.00;;
16856;SDS011;8544;51.312;12.276;2022-08-21T07:40:44;45.13;;;42.70;;
16856;SDS011;8544;51.312;12.276;2022-08-21T07:43:14;40.60;;;38.50;;
16856;SDS011;8544;51.312;12.276;2022-08-21T07:45:44;39.23;;;37.17;;
16856;SDS011;8544;51.312;12.276;2022-08-21T07:48:15;39.67;;;37.57;;
16856;SDS011;8544;51.312;12.276;2022-08-21T07:50:43;34.00;;;32.20;;
16856;SDS011;8544;51.312;12.276;2022-08-21T07:53:11;30.33;;;28.83;;
16856;SDS011;8544;51.312;12.276;2022-08-21T07:55:39;29.03;;;27.53;;
16856;SDS011;8544;51.312;12.276;2022-08-21T07:58:06;30.30;;;28.80;;
16856;SDS011;8544;51.312;12.276;2022-08-21T08:00:36;38.60;;;36.60;;
16856;SDS011;8544;51.312;12.276;2022-08-21T08:03:04;40.67;;;38.53;;
16856;SDS011;8544;51.312;12.276;2022-08-21T08:05:32;33.47;;;31.70;;
16856;SDS011;8544;51.312;12.276;2022-08-21T08:08:02;47.53;;;44.97;;
16856;SDS011;8544;51.312;12.276;2022-08-21T08:10:33;55.77;;;52.73;;
16856;SDS011;8544;51.312;12.276;2022-08-21T08:13:02;56.53;;;53.47;;
16856;SDS011;8544;51.312;12.276;2022-08-21T08:15:29;63.60;;;60.07;;
16856;SDS011;8544;51.312;12.276;2022-08-21T08:18:04;67.17;;;63.57;;
16856;SDS011;8544;51.312;12.276;2022-08-21T08:20:32;79.77;;;75.47;;
16856;SDS011;8544;51.312;12.276;2022-08-21T08:23:00;92.27;;;87.00;;
16856;SDS011;8544;51.312;12.276;2022-08-21T08:25:31;103.10;;;97.53;;
16856;SDS011;8544;51.312;12.276;2022-08-21T08:28:02;119.53;;;113.03;;
16856;SDS011;8544;51.312;12.276;2022-08-21T08:30:42;123.40;;;116.73;;
16856;SDS011;8544;51.312;12.276;2022-08-21T08:33:13;118.53;;;112.13;;
16856;SDS011;8544;51.312;12.276;2022-08-21T08:35:41;124.17;;;117.20;;
16856;SDS011;8544;51.312;12.276;2022-08-21T08:38:16;127.67;;;120.80;;
16856;SDS011;8544;51.312;12.276;2022-08-21T08:40:51;129.15;;;122.10;;
16856;SDS011;8544;51.312;12.276;2022-08-21T08:43:26;150.13;;;141.90;;
16856;SDS011;8544;51.312;12.276;2022-08-21T08:45:55;139.80;;;132.18;;
16856;SDS011;8544;51.312;12.276;2022-08-21T08:48:36;136.93;;;129.48;;
16856;SDS011;8544;51.312;12.276;2022-08-21T08:51:19;157.18;;;148.65;;
16856;SDS011;8544;51.312;12.276;2022-08-21T08:53:52;196.38;;;185.77;;
16856;SDS011;8544;51.312;12.276;2022-08-21T08:56:26;249.50;;;236.07;;
16856;SDS011;8544;51.312;12.276;2022-08-21T08:58:59;263.38;;;249.27;;
16856;SDS011;8544;51.312;12.276;2022-08-21T09:01:29;271.65;;;256.95;;
16856;SDS011;8544;51.312;12.276;2022-08-21T09:04:04;248.48;;;235.20;;
16856;SDS011;8544;51.312;12.276;2022-08-21T09:06:37;212.02;;;200.57;;
16856;SDS011;8544;51.312;12.276;2022-08-21T09:09:20;213.30;;;201.73;;
16856;SDS011;8544;51.312;12.276;2022-08-21T09:11:57;276.58;;;261.67;;
16856;SDS011;8544;51.312;12.276;2022-08-21T09:14:41;290.50;;;274.73;;
16856;SDS011;8544;51.312;12.276;2022-08-21T09:17:23;287.90;;;271.98;;
16856;SDS011;8544;51.312;12.276;2022-08-21T09:20:16;223.93;;;211.70;;
16856;SDS011;8544;51.312;12.276;2022-08-21T09:22:57;222.80;;;210.77;;
16856;SDS011;8544;51.312;12.276;2022-08-21T09:25:34;202.90;;;191.88;;
16856;SDS011;8544;51.312;12.276;2022-08-21T09:28:09;268.20;;;253.80;;
16856;SDS011;8544;51.312;12.276;2022-08-21T09:30:40;241.15;;;228.27;;
16856;SDS011;8544;51.312;12.276;2022-08-21T09:33:09;252.45;;;239.02;;
16856;SDS011;8544;51.312;12.276;2022-08-21T09:35:48;288.95;;;273.58;;
16856;SDS011;8544;51.312;12.276;2022-08-21T09:38:24;241.73;;;228.80;;
16856;SDS011;8544;51.312;12.276;2022-08-21T09:40:58;229.25;;;217.07;;
16856;SDS011;8544;51.312;12.276;2022-08-21T09:43:28;285.83;;;270.48;;
16856;SDS011;8544;51.312;12.276;2022-08-21T09:46:02;228.30;;;216.10;;
16856;SDS011;8544;51.312;12.276;2022-08-21T09:48:41;283.90;;;268.80;;
16856;SDS011;8544;51.312;12.276;2022-08-21T09:51:14;320.08;;;302.75;;
16856;SDS011;8544;51.312;12.276;2022-08-21T09:53:45;310.83;;;293.92;;
16856;SDS011;8544;51.312;12.276;2022-08-21T09:56:21;306.83;;;290.23;;
16856;SDS011;8544;51.312;12.276;2022-08-21T09:59:13;260.38;;;246.43;;
16856;SDS011;8544;51.312;12.276;2022-08-21T10:01:44;259.38;;;245.10;;
16856;SDS011;8544;51.312;12.276;2022-08-21T10:04:13;220.77;;;208.77;;
16856;SDS011;8544;51.312;12.276;2022-08-21T10:06:44;243.38;;;230.27;;
16856;SDS011;8544;51.312;12.276;2022-08-21T10:09:13;229.27;;;216.88;;
16856;SDS011;8544;51.312;12.276;2022-08-21T10:11:51;245.60;;;232.40;;
16856;SDS011;8544;51.312;12.276;2022-08-21T10:14:39;244.15;;;231.00;;
16856;SDS011;8544;51.312;12.276;2022-08-21T10:17:17;273.98;;;259.33;;
16856;SDS011;8544;51.312;12.276;2022-08-21T10:19:52;306.20;;;289.60;;
16856;SDS011;8544;51.312;12.276;2022-08-21T10:22:34;275.90;;;261.10;;
16856;SDS011;8544;51.312;12.276;2022-08-21T10:25:16;253.07;;;239.57;;
16856;SDS011;8544;51.312;12.276;2022-08-21T10:27:55;251.43;;;238.02;;
16856;SDS011;8544;51.312;12.276;2022-08-21T10:30:40;247.63;;;234.43;;
16856;SDS011;8544;51.312;12.276;2022-08-21T10:33:24;257.30;;;243.68;;
16856;SDS011;8544;51.312;12.276;2022-08-21T10:36:12;244.25;;;231.23;;
16856;SDS011;8544;51.312;12.276;2022-08-21T10:38:49;239.20;;;226.52;;
16856;SDS011;8544;51.312;12.276;2022-08-21T10:44:47;305.27;;;288.88;;
16856;SDS011;8544;51.312;12.276;2022-08-21T10:47:24;278.52;;;263.75;;
16856;SDS011;8544;51.312;12.276;2022-08-21T10:50:05;284.55;;;269.33;;
16856;SDS011;8544;51.312;12.276;2022-08-21T10:52:51;301.58;;;285.42;;
16856;SDS011;8544;51.312;12.276;2022-08-21T10:55:41;308.67;;;292.00;;
16856;SDS011;8544;51.312;12.276;2022-08-21T10:58:13;319.42;;;302.23;;
16856;SDS011;8544;51.312;12.276;2022-08-21T11:00:48;285.48;;;270.42;;
16856;SDS011;8544;51.312;12.276;2022-08-21T11:03:21;266.63;;;252.50;;
16856;SDS011;8544;51.312;12.276;2022-08-21T11:05:58;292.95;;;277.48;;
16856;SDS011;8544;51.312;12.276;2022-08-21T11:08:31;312.63;;;295.88;;
16856;SDS011;8544;51.312;12.276;2022-08-21T11:11:24;300.08;;;284.05;;
16856;SDS011;8544;51.312;12.276;2022-08-21T11:14:04;288.75;;;273.35;;
16856;SDS011;8544;51.312;12.276;2022-08-21T11:16:48;242.25;;;229.40;;
16856;SDS011;8544;51.312;12.276;2022-08-21T11:19:24;259.83;;;246.00;;
16856;SDS011;8544;51.312;12.276;2022-08-21T11:22:00;224.85;;;212.80;;
16856;SDS011;8544;51.312;12.276;2022-08-21T11:24:39;195.68;;;185.10;;
16856;SDS011;8544;51.312;12.276;2022-08-21T11:27:23;241.05;;;228.13;;
16856;SDS011;8544;51.312;12.276;2022-08-21T11:29:58;248.88;;;235.55;;
16856;SDS011;8544;51.312;12.276;2022-08-21T11:32:36;246.52;;;233.25;;
16856;SDS011;8544;51.312;12.276;2022-08-21T11:35:20;216.43;;;204.77;;
16856;SDS011;8544;51.312;12.276;2022-08-21T11:38:00;172.32;;;162.88;;
16856;SDS011;8544;51.312;12.276;2022-08-21T11:40:42;150.20;;;141.20;;
16856;SDS011;8544;51.312;12.276;2022-08-21T11:43:22;158.50;;;149.75;;
16856;SDS011;8544;51.312;12.276;2022-08-21T11:46:03;146.95;;;137.45;;
16856;SDS011;8544;51.312;12.276;2022-08-21T11:48:40;149.40;;;141.15;;
16856;SDS011;8544;51.312;12.276;2022-08-21T11:51:19;136.32;;;128.73;;
16856;SDS011;8544;51.312;12.276;2022-08-21T11:53:51;151.32;;;142.73;;
16856;SDS011;8544;51.312;12.276;2022-08-21T11:56:26;160.95;;;152.05;;
16856;SDS011;8544;51.312;12.276;2022-08-21T11:59:13;168.88;;;159.52;;
16856;SDS011;8544;51.312;12.276;2022-08-21T12:01:48;162.23;;;153.27;;
16856;SDS011;8544;51.312;12.276;2022-08-21T12:04:22;206.88;;;195.63;;
16856;SDS011;8544;51.312;12.276;2022-08-21T12:06:56;237.85;;;225.05;;
16856;SDS011;8544;51.312;12.276;2022-08-21T12:09:37;238.95;;;226.15;;
16856;SDS011;8544;51.312;12.276;2022-08-21T12:12:11;252.60;;;239.07;;
16856;SDS011;8544;51.312;12.276;2022-08-21T12:15:12;207.93;;;196.73;;
16856;SDS011;8544;51.312;12.276;2022-08-21T12:17:57;217.27;;;205.48;;
16856;SDS011;8544;51.312;12.276;2022-08-21T12:20:37;210.65;;;199.30;;
16856;SDS011;8544;51.312;12.276;2022-08-21T12:23:18;201.32;;;190.40;;
16856;SDS011;8544;51.312;12.276;2022-08-21T12:29:03;199.57;;;188.73;;
16856;SDS011;8544;51.312;12.276;2022-08-21T12:31:36;176.95;;;167.23;;
16856;SDS011;8544;51.312;12.276;2022-08-21T12:34:17;159.93;;;150.10;;
16856;SDS011;8544;51.312;12.276;2022-08-21T12:36:54;166.93;;;157.70;;
16856;SDS011;8544;51.312;12.276;2022-08-21T12:39:27;142.20;;;134.32;;
16856;SDS011;8544;51.312;12.276;2022-08-21T12:41:59;152.95;;;144.48;;
16856;SDS011;8544;51.312;12.276;2022-08-21T12:44:36;180.93;;;171.07;;
16856;SDS011;8544;51.312;12.276;2022-08-21T12:47:14;167.43;;;158.20;;
16856;SDS011;8544;51.312;12.276;2022-08-21T12:49:49;161.70;;;152.75;;
16856;SDS011;8544;51.312;12.276;2022-08-21T12:52:24;172.40;;;162.95;;
16856;SDS011;8544;51.312;12.276;2022-08-21T12:55:04;173.00;;;163.45;;
16856;SDS011;8544;51.312;12.276;2022-08-21T12:57:35;153.02;;;144.57;;
16856;SDS011;8544;51.312;12.276;2022-08-21T13:00:06;161.45;;;152.48;;
16856;SDS011;8544;51.312;12.276;2022-08-21T13:02:41;139.23;;;131.55;;
16856;SDS011;8544;51.312;12.276;2022-08-21T13:05:14;144.23;;;136.18;;
16856;SDS011;8544;51.312;12.276;2022-08-21T13:07:51;145.90;;;137.90;;
16856;SDS011;8544;51.312;12.276;2022-08-21T13:10:20;158.15;;;149.35;;
16856;SDS011;8544;51.312;12.276;2022-08-21T13:12:54;174.25;;;164.57;;
16856;SDS011;8544;51.312;12.276;2022-08-21T13:15:26;170.32;;;160.95;;
16856;SDS011;8544;51.312;12.276;2022-08-21T13:18:00;196.65;;;185.95;;
16856;SDS011;8544;51.312;12.276;2022-08-21T13:20:36;175.63;;;165.98;;
16856;SDS011;8544;51.312;12.276;2022-08-21T13:23:16;181.38;;;171.43;;
16856;SDS011;8544;51.312;12.276;2022-08-21T13:25:51;157.27;;;148.32;;
16856;SDS011;8544;51.312;12.276;2022-08-21T13:28:23;148.23;;;139.95;;
16856;SDS011;8544;51.312;12.276;2022-08-21T13:30:59;138.40;;;130.75;;
16856;SDS011;8544;51.312;12.276;2022-08-21T13:33:29;147.10;;;139.00;;
16856;SDS011;8544;51.312;12.276;2022-08-21T13:36:10;140.80;;;133.05;;
16856;SDS011;8544;51.312;12.276;2022-08-21T13:38:42;162.43;;;153.48;;
16856;SDS011;8544;51.312;12.276;2022-08-21T13:41:16;132.90;;;125.38;;
16856;SDS011;8544;51.312;12.276;2022-08-21T13:43:56;127.47;;;120.55;;
16856;SDS011;8544;51.312;12.276;2022-08-21T13:46:26;138.35;;;130.73;;
16856;SDS011;8544;51.312;12.276;2022-08-21T13:49:00;139.18;;;131.50;;
16856;SDS011;8544;51.312;12.276;2022-08-21T13:51:30;130.90;;;123.72;;
16856;SDS011;8544;51.312;12.276;2022-08-21T13:54:00;144.38;;;136.43;;
16856;SDS011;8544;51.312;12.276;2022-08-21T13:56:28;136.80;;;129.30;;
16856;SDS011;8544;51.312;12.276;2022-08-21T13:58:58;137.60;;;130.02;;
16856;SDS011;8544;51.312;12.276;2022-08-21T14:01:28;125.38;;;118.50;;
16856;SDS011;8544;51.312;12.276;2022-08-21T14:04:02;116.82;;;110.40;;
16856;SDS011;8544;51.312;12.276;2022-08-21T14:06:33;107.60;;;101.75;;
16856;SDS011;8544;51.312;12.276;2022-08-21T14:09:09;107.90;;;101.95;;
16856;SDS011;8544;51.312;12.276;2022-08-21T14:11:42;107.60;;;101.78;;
16856;SDS011;8544;51.312;12.276;2022-08-21T14:14:14;109.75;;;103.72;;
16856;SDS011;8544;51.312;12.276;2022-08-21T14:16:56;113.20;;;107.05;;
16856;SDS011;8544;51.312;12.276;2022-08-21T14:19:43;111.32;;;105.25;;
16856;SDS011;8544;51.312;12.276;2022-08-21T14:22:30;118.72;;;112.13;;
16856;SDS011;8544;51.312;12.276;2022-08-21T14:25:11;122.38;;;115.43;;
16856;SDS011;8544;51.312;12.276;2022-08-21T14:27:43;103.25;;;97.65;;
16856;SDS011;8544;51.312;12.276;2022-08-21T14:30:18;107.00;;;101.20;;
16856;SDS011;8544;51.312;12.276;2022-08-21T14:32:50;112.72;;;106.60;;
16856;SDS011;8544;51.312;12.276;2022-08-21T14:35:21;107.47;;;101.63;;
16856;SDS011;8544;51.312;12.276;2022-08-21T14:37:50;113.63;;;107.45;;
16856;SDS011;8544;51.312;12.276;2022-08-21T14:40:25;113.90;;;107.72;;
16856;SDS011;8544;51.312;12.276;2022-08-21T14:42:55;130.60;;;123.00;;
16856;SDS011;8544;51.312;12.276;2022-08-21T14:45:25;138.02;;;130.45;;
16856;SDS011;8544;51.312;12.276;2022-08-21T14:47:58;122.18;;;115.55;;
16856;SDS011;8544;51.312;12.276;2022-08-21T14:50:27;146.73;;;138.65;;
16856;SDS011;8544;51.312;12.276;2022-08-21T14:52:55;131.55;;;124.30;;
16856;SDS011;8544;51.312;12.276;2022-08-21T14:55:24;114.10;;;107.93;;